Time;durP1;ratioP1;P1;durP2;ratioP2;P2;SDS_P1;SDS_P2;PMS_P1;PMS_P2;Temp;Humidity;BMP_temperature;BMP_pressure;BME280_temperature;BME280_humidity;BME280_pressure;Samples;Min_cycle;Max_cycle;Signal;HPM_P1;HPM_P2
2022/08/09 00:00:08;;;;;;;0.30;0.30;;;;;;;20.16;37.48;97368.62;29395;236;63009;-63
2022/08/09 00:00:39;;;;;;;0.30;0.30;;;;;;;20.14;37.36;97366.19;29395;237;63004;-63
2022/08/09 00:01:10;;;;;;;0.40;0.40;;;;;;;20.13;37.48;97361.03;29395;222;63014;-63
2022/08/09 00:01:47;;;;;;;1.70;1.58;;;;;;;20.11;37.36;97372.41;29395;231;63005;-63
2022/08/09 00:02:18;;;;;;;0.40;0.40;;;;;;;20.06;37.31;97362.44;29395;229;63009;-63
2022/08/09 00:02:50;;;;;;;0.40;0.40;;;;;;;20.07;37.48;97361.28;29394;227;64009;-65
2022/08/09 00:03:22;;;;;;;0.40;0.40;;;;;;;20.07;37.20;97366.78;29395;267;63024;-63
2022/08/09 00:03:53;;;;;;;0.40;0.40;;;;;;;20.07;37.43;97368.75;29395;228;63005;-56
2022/08/09 00:04:26;;;;;;;0.30;0.30;;;;;;;20.06;37.70;97365.19;29395;218;63009;-63
2022/08/09 00:04:58;;;;;;;0.30;0.30;;;;;;;20.08;37.55;97362.09;29394;239;64009;-62
2022/08/09 00:05:29;;;;;;;0.30;0.30;;;;;;;20.05;37.60;97358.06;29395;225;63009;-63
2022/08/09 00:06:00;;;;;;;0.40;0.40;;;;;;;20.04;37.30;97364.72;29395;215;63004;-63
2022/08/09 00:06:32;;;;;;;0.40;0.40;;;;;;;20.04;37.75;97359.22;29395;252;63009;-64
2022/08/09 00:07:04;;;;;;;0.40;0.40;;;;;;;20.04;37.61;97367.47;29395;242;63004;-62
2022/08/09 00:07:36;;;;;;;0.30;0.30;;;;;;;20.04;37.76;97361.16;29395;210;63017;-63
2022/08/09 00:08:12;;;;;;;0.40;0.40;;;;;;;20.02;37.49;97366.22;29395;259;63004;-63
2022/08/09 00:08:47;;;;;;;0.40;0.40;;;;;;;19.99;37.78;97364.94;29395;218;63008;-62
2022/08/09 00:09:19;;;;;;;0.30;0.30;;;;;;;19.98;37.53;97363.34;29395;227;63005;-63
2022/08/09 00:09:50;;;;;;;0.40;0.40;;;;;;;20.00;38.02;97363.00;29395;213;63009;-63
2022/08/09 00:10:21;;;;;;;0.40;0.40;;;;;;;20.00;37.94;97366.56;29394;205;64009;-64
2022/08/09 00:10:52;;;;;;;0.30;0.30;;;;;;;20.01;37.97;97368.16;29395;218;63009;-63
2022/08/09 00:11:24;;;;;;;0.40;0.40;;;;;;;20.00;37.60;97361.03;29395;215;63005;-65
2022/08/09 00:11:59;;;;;;;0.30;0.30;;;;;;;19.99;37.99;97364.94;29394;228;64009;-63
2022/08/09 00:12:30;;;;;;;0.40;0.40;;;;;;;20.00;37.90;97365.75;29395;290;63010;-63
2022/08/09 00:13:01;;;;;;;0.40;0.40;;;;;;;19.98;38.18;97360.59;29395;230;63009;-63
2022/08/09 00:13:32;;;;;;;0.40;0.40;;;;;;;19.98;37.93;97363.34;29395;206;63004;-61
2022/08/09 00:14:04;;;;;;;0.40;0.40;;;;;;;19.97;38.05;97367.22;29395;224;63009;-63
2022/08/09 00:14:35;;;;;;;0.40;0.40;;;;;;;19.97;37.86;97363.69;29395;217;63004;-63
2022/08/09 00:15:08;;;;;;;0.40;0.40;;;;;;;19.96;38.14;97370.34;29395;212;63008;-63
2022/08/09 00:15:40;;;;;;;0.40;0.40;;;;;;;19.96;38.10;97365.63;29394;247;64009;-61
2022/08/09 00:16:11;;;;;;;0.40;0.40;;;;;;;19.96;38.38;97357.38;29395;222;63015;-64
2022/08/09 00:16:42;;;;;;;0.40;0.40;;;;;;;19.96;38.04;97364.81;29395;197;63005;-63
2022/08/09 00:17:13;;;;;;;0.30;0.30;;;;;;;19.95;38.32;97358.50;29395;238;63009;-63
2022/08/09 00:17:44;;;;;;;0.37;0.37;;;;;;;19.94;38.04;97370.66;29395;203;63005;-63
2022/08/09 00:18:16;;;;;;;0.30;0.30;;;;;;;19.92;38.45;97364.69;29395;222;63005;-65
2022/08/09 00:18:48;;;;;;;0.40;0.40;;;;;;;19.92;38.39;97369.41;29395;222;63005;-63
2022/08/09 00:19:19;;;;;;;0.40;0.40;;;;;;;19.90;38.49;97372.50;29395;283;63009;-57
2022/08/09 00:19:50;;;;;;;0.40;0.40;;;;;;;19.89;38.19;97359.88;29395;202;63004;-57
2022/08/09 00:20:22;;;;;;;0.40;0.40;;;;;;;19.89;38.56;97365.38;29395;208;63009;-63
2022/08/09 00:20:53;;;;;;;0.40;0.40;;;;;;;19.88;38.39;97369.28;29394;311;64009;-64
2022/08/09 00:21:27;;;;;;;0.30;0.30;;;;;;;19.85;38.60;97372.72;29395;231;63009;-65
2022/08/09 00:22:02;;;;;;;0.40;0.40;;;;;;;19.83;38.50;97366.75;29394;259;64009;-57
2022/08/09 00:22:34;;;;;;;1.02;1.02;;;;;;;19.82;38.76;97369.84;29395;215;63008;-65
2022/08/09 00:23:06;;;;;;;0.40;0.40;;;;;;;19.79;38.59;97365.81;29395;233;63005;-62
2022/08/09 00:23:38;;;;;;;0.40;0.40;;;;;;;19.78;38.74;97368.91;29395;198;63009;-65
2022/08/09 00:24:10;;;;;;;0.40;0.40;;;;;;;19.77;39.05;97373.59;29395;210;63005;-65
2022/08/09 00:24:41;;;;;;;0.37;0.37;;;;;;;19.75;38.67;97368.44;29394;230;64013;-66
2022/08/09 00:25:13;;;;;;;0.30;0.30;;;;;;;19.71;38.80;97375.78;29395;231;63005;-64
2022/08/09 00:25:44;;;;;;;0.40;0.40;;;;;;;19.69;38.93;97363.50;29395;216;63009;-63
2022/08/09 00:26:15;;;;;;;0.40;0.40;;;;;;;19.68;39.21;97370.16;29394;220;64009;-64
2022/08/09 00:26:47;;;;;;;0.40;0.40;;;;;;;19.66;39.28;97373.25;29395;221;63009;-65
2022/08/09 00:27:19;;;;;;;0.30;0.30;;;;;;;19.63;40.07;97378.63;29394;197;64009;-66
2022/08/09 00:27:51;;;;;;;0.40;0.40;;;;;;;19.59;39.65;97372.19;29394;240;64009;-66
2022/08/09 00:28:22;;;;;;;0.30;0.30;;;;;;;19.56;39.21;97378.37;29395;211;63015;-58
2022/08/09 00:28:54;;;;;;;0.40;0.40;;;;;;;19.54;39.61;97377.91;29395;202;63009;-65
2022/08/09 00:29:27;;;;;;;0.40;0.40;;;;;;;19.51;40.02;97387.66;29395;241;63004;-58
2022/08/09 00:29:58;;;;;;;0.40;0.40;;;;;;;19.46;40.24;97384.25;29395;233;63008;-58
2022/08/09 00:30:30;;;;;;;0.40;0.40;;;;;;;19.46;40.37;97376.00;29395;391;63004;-65
2022/08/09 00:31:03;;;;;;;0.40;0.40;;;;;;;19.43;40.89;97388.50;29395;227;63009;-66
2022/08/09 00:31:34;;;;;;;0.40;0.40;;;;;;;19.39;41.32;97387.59;29395;208;63005;-57
2022/08/09 00:32:06;;;;;;;0.40;0.40;;;;;;;19.34;42.77;97394.09;29395;249;63009;-70
2022/08/09 00:32:37;;;;;;;0.40;0.40;;;;;;;19.29;43.37;97402.56;29394;244;64009;-64
2022/08/09 00:33:08;;;;;;;0.37;0.37;;;;;;;19.27;41.90;97398.53;29395;215;63009;-67
2022/08/09 00:33:41;;;;;;;0.40;0.40;;;;;;;19.26;41.64;97400.47;29395;223;63005;-67
2022/08/09 00:34:14;;;;;;;0.40;0.40;;;;;;;19.24;42.04;97389.00;29395;225;63009;-66
2022/08/09 00:34:45;;;;;;;0.40;0.40;;;;;;;19.25;41.68;97395.31;29395;234;63004;-66
2022/08/09 00:35:16;;;;;;;0.40;0.40;;;;;;;19.23;41.77;97392.88;29395;256;63009;-65
2022/08/09 00:35:47;;;;;;;0.93;0.93;;;;;;;19.22;41.57;97394.03;29395;230;63004;-57
2022/08/09 00:36:19;;;;;;;0.40;0.40;;;;;;;19.21;42.39;97395.19;29395;209;63009;-67
2022/08/09 00:36:50;;;;;;;0.40;0.40;;;;;;;19.17;41.96;97394.22;29395;206;63004;-67
2022/08/09 00:37:21;;;;;;;0.40;0.40;;;;;;;19.16;42.34;97400.88;29395;389;63008;-67
2022/08/09 00:37:53;;;;;;;0.37;0.37;;;;;;;19.15;42.07;97396.50;29394;236;64008;-57
2022/08/09 00:38:24;;;;;;;0.40;0.40;;;;;;;19.13;42.05;97387.78;29395;197;63015;-67
2022/08/09 00:38:58;;;;;;;0.30;0.30;;;;;;;19.12;41.91;97397.19;29395;318;63005;-66
2022/08/09 00:39:30;;;;;;;0.40;0.40;;;;;;;19.11;42.22;97395.56;29395;205;63009;-67
2022/08/09 00:40:02;;;;;;;0.40;0.40;;;;;;;19.09;42.31;97395.09;29395;254;63005;-67
2022/08/09 00:40:34;;;;;;;0.40;0.40;;;;;;;19.05;42.62;97397.75;29395;200;63009;-67
2022/08/09 00:41:06;;;;;;;0.40;0.40;;;;;;;19.00;43.20;97406.19;29395;206;63005;-67
2022/08/09 00:41:38;;;;;;;0.40;0.40;;;;;;;18.97;43.50;97408.81;29395;260;63009;-66
2022/08/09 00:42:09;;;;;;;0.40;0.40;;;;;;;18.93;43.19;97403.16;29395;250;63005;-67
2022/08/09 00:42:40;;;;;;;0.40;0.40;;;;;;;18.91;43.31;97407.38;29394;337;64013;-66
2022/08/09 00:43:12;;;;;;;0.60;0.60;;;;;;;18.88;43.20;97405.31;29395;220;63004;-66
2022/08/09 00:43:44;;;;;;;0.40;0.40;;;;;;;18.85;44.09;97409.53;29395;274;63009;-67
2022/08/09 00:44:15;;;;;;;0.40;0.40;;;;;;;18.82;43.07;97404.69;29395;210;63004;-66
2022/08/09 00:44:48;;;;;;;0.40;0.40;;;;;;;18.80;44.05;97408.91;29394;261;64013;-66
2022/08/09 00:45:19;;;;;;;0.40;0.40;;;;;;;18.76;44.63;97408.75;29395;203;63004;-66
2022/08/09 00:45:51;;;;;;;0.40;0.40;;;;;;;18.72;43.87;97411.38;29395;260;63009;-66
2022/08/09 00:46:22;;;;;;;0.50;0.50;;;;;;;18.70;43.65;97410.94;29395;222;63005;-66
2022/08/09 00:46:54;;;;;;;0.40;0.40;;;;;;;18.70;43.83;97413.69;29394;197;64014;-67
2022/08/09 00:47:25;;;;;;;1.50;1.50;;;;;;;18.68;43.81;97404.94;29395;220;63005;-67
2022/08/09 00:47:56;;;;;;;0.40;0.40;;;;;;;18.66;43.98;97404.47;29395;230;63009;-67
2022/08/09 00:48:27;;;;;;;0.40;0.40;;;;;;;18.66;44.12;97409.97;29395;202;63017;-67
2022/08/09 00:48:59;;;;;;;0.50;0.50;;;;;;;18.65;44.26;97408.38;29395;205;63009;-68
2022/08/09 00:49:31;;;;;;;0.40;0.40;;;;;;;18.64;44.81;97414.19;29395;227;63005;-66
2022/08/09 00:50:04;;;;;;;0.40;0.40;;;;;;;18.60;44.24;97405.81;29394;212;64013;-67
2022/08/09 00:50:35;;;;;;;0.40;0.40;;;;;;;18.59;44.37;97406.09;29395;215;63004;-67
2022/08/09 00:51:07;;;;;;;0.40;0.40;;;;;;;18.57;44.61;97402.87;29395;280;63009;-66
2022/08/09 00:51:38;;;;;;;0.40;0.40;;;;;;;18.56;44.32;97404.03;29395;230;63004;-57
2022/08/09 00:52:10;;;;;;;0.40;0.40;;;;;;;18.54;45.06;97409.03;29395;197;63009;-67
2022/08/09 00:52:42;;;;;;;0.40;0.40;;;;;;;18.52;44.38;97403.06;29394;304;64008;-67
2022/08/09 00:53:13;;;;;;;0.40;0.40;;;;;;;18.51;44.52;97404.19;29395;309;63009;-67
2022/08/09 00:53:45;;;;;;;0.40;0.40;;;;;;;18.49;44.51;97396.28;29395;269;63005;-66
2022/08/09 00:54:17;;;;;;;0.70;0.70;;;;;;;18.49;44.41;97400.97;29395;224;63009;-66
2022/08/09 00:54:50;;;;;;;0.50;0.50;;;;;;;18.49;44.31;97395.47;29395;216;63011;-56
2022/08/09 00:55:22;;;;;;;0.40;0.40;;;;;;;18.48;44.45;97399.38;29394;215;64013;-66
2022/08/09 00:55:53;;;;;;;0.40;0.40;;;;;;;18.46;44.83;97407.94;29395;204;63005;-67
2022/08/09 00:56:24;;;;;;;0.40;0.40;;;;;;;18.44;44.42;97393.72;29395;198;63009;-67
2022/08/09 00:56:55;;;;;;;0.40;0.40;;;;;;;18.44;44.68;97396.47;29395;225;63004;-57
2022/08/09 00:57:30;;;;;;;0.40;0.40;;;;;;;18.45;44.41;97411.81;29395;213;63009;-67
2022/08/09 00:58:02;;;;;;;0.40;0.40;;;;;;;18.42;45.04;97401.50;29395;202;63004;-67
2022/08/09 00:58:34;;;;;;;0.40;0.40;;;;;;;18.38;45.50;97406.84;29396;329;63009;-66
2022/08/09 00:59:06;;;;;;;0.40;0.40;;;;;;;18.37;44.69;97405.22;29395;228;63004;-66
2022/08/09 00:59:44;;;;;;;0.40;0.40;;;;;;;18.37;44.73;97401.69;29395;218;63008;-67
2022/08/09 01:00:16;;;;;;;0.40;0.40;;;;;;;18.37;44.98;97402.47;29395;202;63004;-65
2022/08/09 01:00:52;;;;;;;0.40;0.40;;;;;;;18.38;44.75;97406.03;29394;198;64014;-56
2022/08/09 01:01:31;;;;;;;0.40;0.40;;;;;;;18.37;44.73;97407.97;29395;267;63005;-67
2022/08/09 01:02:02;;;;;;;0.40;0.40;;;;;;;18.38;44.61;97400.53;29395;343;63009;-65
2022/08/09 01:02:39;;;;;;;0.40;0.40;;;;;;;18.37;44.87;97409.91;29394;347;64005;-65
2022/08/09 01:03:27;;;;;;;0.40;0.40;;;;;;;18.34;44.67;97394.94;29395;224;63009;-66
2022/08/09 01:04:12;;;;;;;0.40;0.40;;;;;;;18.33;44.73;97403.50;29394;222;64005;-67
2022/08/09 01:05:07;;;;;;;0.40;0.40;;;;;;;18.27;46.13;97405.62;29395;198;63009;-69
2022/08/09 01:06:12;;;;;;;0.40;0.40;;;;;;;18.16;46.05;97403.56;29394;264;64009;-66
2022/08/09 01:07:24;;;;;;;0.40;0.40;;;;;;;18.15;45.35;97407.44;29395;232;63008;-67
2022/08/09 01:08:40;;;;;;;0.40;0.40;;;;;;;18.17;45.56;97410.66;29417;200;63005;-65
2022/08/09 01:09:35;;;;;;;0.40;0.40;;;;;;;18.17;45.45;97403.22;29395;216;63009;-68
2022/08/09 01:10:30;;;;;;;0.40;0.40;;;;;;;18.17;45.67;97405.19;29395;219;63005;-65
2022/08/09 01:11:56;;;;;;;0.40;0.40;;;;;;;18.15;45.48;97401.94;29394;292;64013;-66
2022/08/09 01:12:59;;;;;;;0.50;0.50;;;;;;;18.13;45.51;97405.03;29395;373;63004;-66
2022/08/09 01:13:45;;;;;;;0.40;0.40;;;;;;;18.14;45.26;97405.81;29395;199;63009;-68
2022/08/09 01:14:40;;;;;;;0.40;0.40;;;;;;;18.11;46.23;97417.47;29395;259;63004;-66
2022/08/09 01:15:21;;;;;;;0.40;0.40;;;;;;;18.05;45.98;97409.41;29395;305;63009;-67
2022/08/09 01:15:53;;;;;;;;;;;;;;;18.03;45.91;97410.88;29996;982;6000;-67
2022/08/09 01:16:31;;;;;;;0.40;0.40;;;;;;;18.03;46.44;97414.41;29400;327;63001;-65
2022/08/09 01:17:15;;;;;;;0.40;0.40;;;;;;;18.03;46.30;97411.69;29394;199;64013;-67
2022/08/09 01:18:06;;;;;;;0.40;0.40;;;;;;;18.03;46.45;97417.16;29394;212;64009;-67
2022/08/09 01:18:44;;;;;;;1.25;1.25;;;;;;;18.01;46.49;97408.47;29439;224;63009;-66
2022/08/09 01:19:43;;;;;;;0.50;0.50;;;;;;;18.01;46.53;97413.16;29373;222;63004;-67
2022/08/09 01:20:35;;;;;;;0.40;0.40;;;;;;;18.00;46.50;97411.56;29395;248;63009;-67
2022/08/09 01:21:43;;;;;;;0.40;0.40;;;;;;;17.99;46.62;97410.75;29394;204;64009;-56
2022/08/09 01:22:44;;;;;;;0.40;0.40;;;;;;;17.99;46.47;97409.94;29395;204;63015;-66
2022/08/09 01:23:55;;;;;;;0.50;0.50;;;;;;;18.00;46.36;97417.03;29395;328;63001;-67
2022/08/09 01:25:20;;;;;;;0.50;0.50;;;;;;;18.00;46.49;97412.34;29395;212;63009;-66
2022/08/09 01:26:19;;;;;;;0.50;0.50;;;;;;;18.00;46.55;97414.28;29394;208;64009;-68
2022/08/09 01:27:09;;;;;;;0.40;0.40;;;;;;;17.99;46.69;97416.25;29394;216;64013;-67
2022/08/09 01:27:42;;;;;;;0.40;0.40;;;;;;;17.98;46.55;97417.37;29395;236;63007;-66
2022/08/09 01:28:15;;;;;;;0.50;0.50;;;;;;;17.99;46.75;97416.25;29395;323;63009;-56
2022/08/09 01:28:49;;;;;;;0.50;0.50;;;;;;;17.98;46.67;97419.31;29395;216;63004;-66
2022/08/09 01:29:43;;;;;;;0.40;0.40;;;;;;;17.96;48.31;97422.38;29395;330;63008;-66
2022/08/09 01:30:15;;;;;;;0.47;0.47;;;;;;;17.89;48.29;97424.81;29394;217;64009;-67
2022/08/09 01:30:48;;;;;;;0.40;0.40;;;;;;;17.84;48.77;97430.47;29395;210;63009;-66
2022/08/09 01:31:27;;;;;;;0.50;0.50;;;;;;;17.80;48.37;97429.50;29394;287;64009;-66
2022/08/09 01:32:02;;;;;;;0.40;0.40;;;;;;;17.79;47.97;97427.91;29395;223;63009;-66
2022/08/09 01:32:39;;;;;;;0.50;0.50;;;;;;;17.78;48.44;97431.78;29395;197;63005;-66
2022/08/09 01:33:15;;;;;;;0.40;0.40;;;;;;;17.70;49.62;97436.16;29377;275;125018;-66
2022/08/09 01:33:49;;;;;;;0.50;0.50;;;;;;;17.62;49.73;97439.69;29394;298;64009;-57
2022/08/09 01:34:21;;;;;;;0.40;0.40;;;;;;;17.58;49.85;97436.00;29395;252;63009;-67
2022/08/09 01:34:54;;;;;;;0.43;0.43;;;;;;;17.55;49.83;97435.84;29395;285;63004;-66
2022/08/09 01:36:03;;;;;;;0.50;0.50;;;;;;;17.55;49.28;97438.56;29395;233;63009;-66
2022/08/09 01:36:37;;;;;;;0.50;0.50;;;;;;;17.56;48.90;97437.44;29395;300;63004;-66
2022/08/09 01:37:12;;;;;;;0.43;0.43;;;;;;;17.59;48.90;97439.53;29395;206;63008;-66
2022/08/09 01:37:45;;;;;;;0.40;0.40;;;;;;;17.61;48.93;97437.28;29395;232;63005;-66
2022/08/09 01:38:21;;;;;;;0.50;0.50;;;;;;;17.62;48.78;97433.41;29395;296;63020;-66
2022/08/09 01:38:52;;;;;;;0.40;0.40;;;;;;;17.66;48.76;97442.63;29394;270;64009;-66
2022/08/09 01:39:26;;;;;;;0.50;0.50;;;;;;;17.67;48.58;97438.75;29395;336;63009;-66
2022/08/09 01:40:02;;;;;;;0.50;0.50;;;;;;;17.68;48.51;97437.59;29395;294;63005;-57
2022/08/09 01:40:35;;;;;;;0.40;0.40;;;;;;;17.69;48.62;97436.47;29395;334;63009;-66
2022/08/09 01:41:24;;;;;;;0.40;0.40;;;;;;;17.72;48.73;97441.31;29395;268;63005;-66
2022/08/09 01:41:57;;;;;;;0.50;0.50;;;;;;;17.72;48.40;97433.06;29394;271;64013;-66
2022/08/09 01:42:31;;;;;;;0.50;0.50;;;;;;;17.73;48.27;97435.50;29395;222;63004;-66
2022/08/09 01:43:04;;;;;;;0.40;0.40;;;;;;;17.76;48.30;97434.03;29395;227;63009;-67
2022/08/09 01:43:38;;;;;;;0.40;0.40;;;;;;;17.75;48.33;97446.16;29395;213;63004;-66
2022/08/09 01:44:11;;;;;;;0.40;0.40;;;;;;;17.77;48.44;97440.34;29395;242;63009;-65
2022/08/09 01:44:44;;;;;;;0.40;0.40;;;;;;;17.79;47.97;97438.06;29395;215;63004;-56
2022/08/09 01:45:17;;;;;;;0.40;0.40;;;;;;;17.80;47.93;97440.50;29395;196;63009;-67
2022/08/09 01:45:50;;;;;;;0.40;0.40;;;;;;;17.81;47.71;97439.37;29395;202;63005;-66
2022/08/09 01:46:33;;;;;;;0.40;0.40;;;;;;;17.83;48.84;97447.28;29395;197;63016;-67
2022/08/09 01:47:06;;;;;;;0.47;0.47;;;;;;;17.79;49.46;97449.84;29394;331;64009;-67
2022/08/09 01:47:40;;;;;;;0.40;0.40;;;;;;;17.77;49.39;97446.63;29395;200;63009;-66
2022/08/09 01:48:13;;;;;;;0.40;0.40;;;;;;;17.77;48.68;97449.38;29395;281;63005;-66
2022/08/09 01:48:47;;;;;;;0.40;0.40;;;;;;;17.77;48.92;97452.12;29395;337;63009;-66
2022/08/09 01:49:20;;;;;;;0.50;0.50;;;;;;;17.75;48.76;97446.97;29394;219;64009;-67
2022/08/09 01:49:55;;;;;;;0.30;0.30;;;;;;;17.75;48.43;97449.69;29395;352;63009;-66
2022/08/09 01:50:28;;;;;;;0.50;0.50;;;;;;;17.77;48.16;97443.88;29395;204;63004;-66
2022/08/09 01:51:01;;;;;;;0.40;0.40;;;;;;;17.78;48.44;97442.75;29395;202;63009;-65
2022/08/09 01:51:34;;;;;;;0.40;0.40;;;;;;;17.79;48.09;97447.13;29395;242;63004;-66
2022/08/09 01:52:12;;;;;;;0.40;0.40;;;;;;;17.80;48.58;97445.97;29395;198;63008;-66
2022/08/09 01:52:44;;;;;;;0.40;0.40;;;;;;;17.81;48.61;97447.59;29394;225;64017;-65
2022/08/09 01:53:16;;;;;;;0.50;0.50;;;;;;;17.82;48.72;97448.41;29395;223;63009;-67
2022/08/09 01:53:50;;;;;;;0.50;0.50;;;;;;;17.81;48.21;97447.59;29395;214;63005;-66
2022/08/09 01:54:55;;;;;;;0.40;0.40;;;;;;;17.71;50.92;97454.22;29394;321;64014;-66
2022/08/09 01:55:31;;;;;;;0.50;0.50;;;;;;;17.61;50.91;97459.22;29395;263;63000;-68
2022/08/09 01:56:04;;;;;;;0.40;0.40;;;;;;;17.56;50.69;97456.66;29395;267;63009;-68
2022/08/09 01:56:39;;;;;;;1.02;0.93;;;;;;;17.53;50.61;97457.28;29394;200;64009;-67
2022/08/09 01:57:17;;;;;;;0.40;0.40;;;;;;;17.51;50.70;97454.06;29395;341;63009;-65
2022/08/09 01:57:50;;;;;;;0.40;0.40;;;;;;;17.51;50.60;97449.38;29395;198;63004;-65
2022/08/09 01:58:21;;;;;;;0.50;0.50;;;;;;;17.52;50.52;97448.25;29395;250;63009;-67
2022/08/09 01:58:56;;;;;;;0.40;0.40;;;;;;;17.53;50.08;97446.31;29395;199;63004;-65
2022/08/09 01:59:29;;;;;;;0.40;0.40;;;;;;;17.52;50.27;97441.97;29394;266;64013;-66
2022/08/09 02:00:02;;;;;;;0.40;0.40;;;;;;;17.53;49.98;97446.31;29395;287;63004;-66
2022/08/09 02:00:35;;;;;;;0.40;0.40;;;;;;;17.55;50.33;97449.56;29395;363;63009;-67
2022/08/09 02:01:08;;;;;;;6.22;5.97;;;;;;;17.55;50.09;97452.28;29395;202;63005;-67
2022/08/09 02:01:42;;;;;;;0.45;0.45;;;;;;;17.54;50.53;97453.41;29395;203;63009;-66
2022/08/09 02:02:15;;;;;;;0.43;0.43;;;;;;;17.54;49.81;97442.44;29395;204;63005;-66
2022/08/09 02:02:49;;;;;;;0.40;0.40;;;;;;;17.54;49.94;97445.19;29394;233;64013;-67
2022/08/09 02:03:22;;;;;;;0.40;0.40;;;;;;;17.55;49.94;97446.81;29395;202;63005;-66
2022/08/09 02:03:57;;;;;;;0.40;0.40;;;;;;;17.54;49.79;97442.44;29395;206;63009;-66
2022/08/09 02:04:31;;;;;;;0.40;0.40;;;;;;;17.54;50.19;97447.94;29395;235;63004;-67
2022/08/09 02:05:07;;;;;;;0.40;0.40;;;;;;;17.52;50.12;97447.44;29395;264;63009;-67
2022/08/09 02:05:40;;;;;;;0.40;0.40;;;;;;;17.51;49.95;97448.59;29395;213;63004;-66
2022/08/09 02:06:13;;;;;;;0.40;0.40;;;;;;;17.49;49.97;97454.38;29395;310;63008;-67
2022/08/09 02:07:44;;;;;;;0.47;0.47;;;;;;;17.47;50.51;97453.09;29416;212;64013;-66
2022/08/09 02:08:19;;;;;;;0.40;0.40;;;;;;;17.43;51.13;97453.75;29394;249;64009;-67
2022/08/09 02:08:50;;;;;;;0.40;0.40;;;;;;;17.39;53.21;97463.75;29395;296;63009;-66
2022/08/09 02:09:24;;;;;;;0.40;0.40;;;;;;;17.34;52.95;97466.66;29395;219;63005;-65
2022/08/09 02:10:04;;;;;;;0.40;0.40;;;;;;;17.31;52.05;97461.03;29395;211;63009;-67
2022/08/09 02:10:39;;;;;;;0.40;0.40;;;;;;;17.29;51.94;97458.59;29417;198;63005;-67
2022/08/09 02:11:13;;;;;;;0.40;0.40;;;;;;;17.30;51.60;97449.25;29395;386;63009;-67
2022/08/09 02:11:45;;;;;;;0.40;0.40;;;;;;;17.31;51.09;97456.34;29395;268;63004;-67
2022/08/09 02:12:22;;;;;;;0.40;0.40;;;;;;;17.33;51.08;97459.53;29394;248;64013;-67
2022/08/09 02:12:55;;;;;;;0.50;0.50;;;;;;;17.34;50.73;97455.66;29395;234;63004;-66
2022/08/09 02:13:28;;;;;;;0.82;0.82;;;;;;;17.37;50.66;97449.53;29394;292;64004;-66
2022/08/09 02:14:01;;;;;;;0.40;0.40;;;;;;;17.38;50.38;97455.84;29395;313;63004;-66
2022/08/09 02:14:35;;;;;;;0.40;0.40;;;;;;;17.38;50.80;97448.41;29395;207;63005;-66
2022/08/09 02:15:09;;;;;;;0.40;0.40;;;;;;;17.36;51.84;97460.84;29395;229;63004;-67
2022/08/09 02:15:48;;;;;;;0.40;0.40;;;;;;;17.29;51.84;97457.78;29394;222;64014;-66
2022/08/09 02:16:20;;;;;;;0.40;0.40;;;;;;;17.23;51.84;97457.16;29395;275;63005;-65
2022/08/09 02:16:53;;;;;;;0.62;0.62;;;;;;;17.17;52.79;97465.84;29395;212;63009;-67
2022/08/09 02:17:29;;;;;;;0.40;0.40;;;;;;;17.12;52.88;97464.06;29395;202;63005;-66
2022/08/09 02:18:02;;;;;;;0.40;0.40;;;;;;;17.11;53.39;97467.94;29395;223;63009;-66
2022/08/09 02:18:35;;;;;;;0.40;0.40;;;;;;;17.10;54.44;97463.56;29395;218;63005;-66
2022/08/09 02:19:07;;;;;;;0.40;0.40;;;;;;;17.06;53.68;97466.16;29395;207;63009;-65
2022/08/09 02:19:38;;;;;;;0.40;0.40;;;;;;;17.05;54.03;97464.53;29394;198;64009;-66
2022/08/09 02:20:11;;;;;;;0.40;0.40;;;;;;;17.04;53.29;97462.13;29395;223;63009;-67
2022/08/09 02:20:46;;;;;;;0.40;0.40;;;;;;;17.05;53.14;97458.25;29395;277;63004;-66
2022/08/09 02:21:20;;;;;;;0.40;0.40;;;;;;;17.06;52.75;97459.84;29395;221;63008;-67
2022/08/09 02:21:57;;;;;;;0.43;0.43;;;;;;;17.06;52.69;97459.84;29395;226;63004;-67
2022/08/09 02:22:39;;;;;;;0.40;0.40;;;;;;;17.07;52.36;97456.78;29395;260;63013;-68
2022/08/09 02:23:19;;;;;;;0.40;0.40;;;;;;;17.11;52.26;97445.19;29394;267;64009;-67
2022/08/09 02:23:54;;;;;;;0.43;0.43;;;;;;;17.11;52.21;97453.41;29395;207;63009;-67
2022/08/09 02:24:34;;;;;;;0.40;0.40;;;;;;;17.10;51.60;97455.34;29395;208;63005;-68
2022/08/09 02:25:36;;;;;;;0.40;0.40;;;;;;;17.13;51.33;97451.16;29395;219;63009;-67
2022/08/09 02:26:08;;;;;;;;;;;;;;;17.12;51.31;97453.09;29996;983;6000;-67
2022/08/09 02:26:40;;;;;;;0.40;0.40;;;;;;;17.10;51.23;97452.59;29400;216;63000;-67
2022/08/09 02:27:15;;;;;;;0.40;0.40;;;;;;;17.10;50.89;97452.59;29395;265;63004;-65
2022/08/09 02:28:05;;;;;;;0.40;0.40;;;;;;;17.07;51.62;97451.31;29395;217;63000;-67
2022/08/09 02:28:44;;;;;;;0.50;0.50;;;;;;;17.06;51.40;97454.38;29395;218;63004;-68
2022/08/09 02:29:26;;;;;;;0.45;0.45;;;;;;;17.06;51.47;97459.84;29394;218;64008;-66
2022/08/09 02:30:00;;;;;;;0.40;0.40;;;;;;;17.05;51.27;97452.75;29395;199;63009;-67
2022/08/09 02:30:38;;;;;;;0.43;0.43;;;;;;;17.06;51.09;97449.69;29395;265;63005;-67
2022/08/09 02:31:24;;;;;;;0.40;0.40;;;;;;;17.07;51.47;97447.75;29395;198;63009;-66
2022/08/09 02:32:03;;;;;;;0.40;0.40;;;;;;;17.07;51.59;97453.25;29395;208;63005;-66
2022/08/09 02:32:38;;;;;;;0.40;0.40;;;;;;;17.03;52.21;97457.75;29395;214;63009;-67
2022/08/09 02:33:12;;;;;;;0.50;0.50;;;;;;;16.97;52.28;97450.84;29394;231;64009;-67
2022/08/09 02:33:46;;;;;;;0.50;0.50;;;;;;;16.97;52.09;97454.38;29394;197;64013;-66
2022/08/09 02:34:20;;;;;;;0.50;0.50;;;;;;;16.98;51.64;97452.44;29395;221;63004;-67
2022/08/09 02:34:58;;;;;;;0.40;0.40;;;;;;;16.99;51.46;97454.84;29395;310;63009;-66
2022/08/09 02:35:34;;;;;;;0.40;0.40;;;;;;;17.00;51.46;97455.66;29395;196;63004;-65
2022/08/09 02:36:14;;;;;;;0.40;0.40;;;;;;;17.02;52.06;97458.88;29395;202;63009;-67
2022/08/09 02:36:54;;;;;;;0.50;0.50;;;;;;;17.00;51.96;97463.87;29417;202;63004;-68
2022/08/09 02:37:29;;;;;;;0.40;0.40;;;;;;;16.96;52.17;97455.50;29395;224;63009;-68
2022/08/09 02:38:02;;;;;;;0.50;0.50;;;;;;;16.90;52.76;97458.72;29395;229;63005;-67
2022/08/09 02:38:44;;;;;;;0.50;0.50;;;;;;;16.85;52.00;97456.13;29394;209;64014;-66
2022/08/09 02:39:21;;;;;;;0.45;0.45;;;;;;;16.81;52.67;97461.44;29395;209;63005;-67
2022/08/09 02:39:59;;;;;;;0.40;0.40;;;;;;;16.79;52.82;97460.12;29394;221;64013;-67
2022/08/09 02:40:33;;;;;;;1.92;1.77;;;;;;;16.78;52.15;97453.84;29395;218;63005;-67
2022/08/09 02:41:12;;;;;;;0.40;0.40;;;;;;;16.81;51.82;97455.16;29395;214;63005;-66
2022/08/09 02:41:56;;;;;;;0.50;0.50;;;;;;;16.83;51.71;97453.72;29395;197;63004;-66
2022/08/09 02:42:34;;;;;;;0.50;0.50;;;;;;;16.87;51.87;97454.69;29395;387;63009;-68
2022/08/09 02:43:09;;;;;;;0.50;0.50;;;;;;;16.90;52.06;97458.72;29395;220;63004;-66
2022/08/09 02:43:44;;;;;;;0.50;0.50;;;;;;;16.91;51.76;97457.59;29395;196;63009;-66
2022/08/09 02:44:19;;;;;;;0.40;0.40;;;;;;;16.90;52.09;97454.03;29395;235;63004;-66
2022/08/09 02:44:57;;;;;;;0.40;0.40;;;;;;;16.91;51.73;97446.63;29395;218;63009;-66
2022/08/09 02:45:33;;;;;;;0.40;0.40;;;;;;;16.90;52.61;97455.97;29394;216;64009;-67
2022/08/09 02:46:07;;;;;;;0.50;0.50;;;;;;;16.88;52.61;97455.50;29395;199;63009;-66
2022/08/09 02:46:40;;;;;;;0.50;0.50;;;;;;;16.88;52.55;97458.22;29395;227;63005;-67
2022/08/09 02:47:14;;;;;;;0.43;0.43;;;;;;;16.87;51.94;97451.12;29395;264;63009;-67
2022/08/09 02:47:46;;;;;;;0.60;0.60;;;;;;;16.88;52.01;97458.22;29394;222;64009;-65
2022/08/09 02:48:19;;;;;;;0.40;0.40;;;;;;;16.89;51.61;97444.22;29395;221;63009;-67
2022/08/09 02:48:53;;;;;;;0.50;0.50;;;;;;;16.91;51.73;97446.63;29395;221;63005;-66
2022/08/09 02:49:25;;;;;;;0.50;0.50;;;;;;;16.93;51.31;97447.13;29395;225;63009;-66
2022/08/09 02:50:01;;;;;;;0.50;0.50;;;;;;;16.95;51.32;97448.41;29395;254;63004;-65
2022/08/09 02:50:38;;;;;;;0.40;0.40;;;;;;;16.98;51.27;97446.97;29394;284;64013;-67
2022/08/09 02:51:13;;;;;;;0.40;0.40;;;;;;;16.99;51.09;97443.06;29395;202;63004;-66
2022/08/09 02:51:54;;;;;;;0.40;0.40;;;;;;;17.01;50.85;97440.81;29395;206;63008;-67
2022/08/09 02:52:35;;;;;;;0.50;0.50;;;;;;;17.02;50.94;97437.75;29395;221;63005;-68
2022/08/09 02:53:13;;;;;;;0.40;0.40;;;;;;;17.00;50.71;97445.50;29416;234;64014;-67